sensor_id;sensor_type;location;lat;lon;timestamp;P1;durP1;ratioP1;P2;durP2;ratioP2
4585;SDS011;2305;50.118;8.952;2022-12-18T00:00:17;23.13;;;10.03;;
4585;SDS011;2305;50.118;8.952;2022-12-18T00:02:49;18.93;;;8.83;;
4585;SDS011;2305;50.118;8.952;2022-12-18T00:05:18;21.20;;;9.70;;
4585;SDS011;2305;50.118;8.952;2022-12-18T00:07:49;23.83;;;8.90;;
4585;SDS011;2305;50.118;8.952;2022-12-18T00:10:21;19.47;;;9.90;;
4585;SDS011;2305;50.118;8.952;2022-12-18T00:12:49;21.80;;;8.83;;
4585;SDS011;2305;50.118;8.952;2022-12-18T00:15:19;20.17;;;9.07;;
4585;SDS011;2305;50.118;8.952;2022-12-18T00:17:48;20.70;;;8.77;;
4585;SDS011;2305;50.118;8.952;2022-12-18T00:20:18;24.63;;;10.53;;
4585;SDS011;2305;50.118;8.952;2022-12-18T00:22:51;19.20;;;8.40;;
4585;SDS011;2305;50.118;8.952;2022-12-18T00:25:22;19.10;;;8.23;;
4585;SDS011;2305;50.118;8.952;2022-12-18T00:27:50;29.20;;;10.37;;
4585;SDS011;2305;50.118;8.952;2022-12-18T00:30:23;25.73;;;9.73;;
4585;SDS011;2305;50.118;8.952;2022-12-18T00:32:51;20.37;;;8.67;;
4585;SDS011;2305;50.118;8.952;2022-12-18T00:35:20;20.47;;;9.23;;
4585;SDS011;2305;50.118;8.952;2022-12-18T00:37:51;19.07;;;8.63;;
4585;SDS011;2305;50.118;8.952;2022-12-18T00:40:19;18.57;;;8.53;;
4585;SDS011;2305;50.118;8.952;2022-12-18T00:42:51;15.30;;;8.50;;
4585;SDS011;2305;50.118;8.952;2022-12-18T00:45:26;16.70;;;8.37;;
4585;SDS011;2305;50.118;8.952;2022-12-18T00:47:55;19.47;;;9.63;;
4585;SDS011;2305;50.118;8.952;2022-12-18T00:50:24;18.70;;;8.67;;
4585;SDS011;2305;50.118;8.952;2022-12-18T00:52:53;16.20;;;8.33;;
4585;SDS011;2305;50.118;8.952;2022-12-18T00:55:21;20.83;;;9.53;;
4585;SDS011;2305;50.118;8.952;2022-12-18T00:57:52;19.97;;;10.20;;
4585;SDS011;2305;50.118;8.952;2022-12-18T01:00:20;22.13;;;10.60;;
4585;SDS011;2305;50.118;8.952;2022-12-18T01:02:50;21.00;;;8.10;;
4585;SDS011;2305;50.118;8.952;2022-12-18T01:05:19;17.50;;;7.67;;
4585;SDS011;2305;50.118;8.952;2022-12-18T01:07:48;17.10;;;8.57;;
4585;SDS011;2305;50.118;8.952;2022-12-18T01:10:16;18.63;;;7.77;;
4585;SDS011;2305;50.118;8.952;2022-12-18T01:12:45;17.13;;;9.50;;
4585;SDS011;2305;50.118;8.952;2022-12-18T01:15:13;16.43;;;7.90;;
4585;SDS011;2305;50.118;8.952;2022-12-18T01:17:43;20.77;;;8.87;;
4585;SDS011;2305;50.118;8.952;2022-12-18T01:20:15;17.03;;;8.67;;
4585;SDS011;2305;50.118;8.952;2022-12-18T01:22:44;17.00;;;8.60;;
4585;SDS011;2305;50.118;8.952;2022-12-18T01:25:14;19.30;;;8.80;;
4585;SDS011;2305;50.118;8.952;2022-12-18T01:27:44;18.17;;;8.57;;
4585;SDS011;2305;50.118;8.952;2022-12-18T01:30:14;15.63;;;7.23;;
4585;SDS011;2305;50.118;8.952;2022-12-18T01:32:44;16.17;;;8.00;;
4585;SDS011;2305;50.118;8.952;2022-12-18T01:35:12;16.90;;;8.70;;
4585;SDS011;2305;50.118;8.952;2022-12-18T01:37:45;18.10;;;8.33;;
4585;SDS011;2305;50.118;8.952;2022-12-18T01:40:13;20.13;;;7.77;;
4585;SDS011;2305;50.118;8.952;2022-12-18T01:42:43;18.97;;;8.10;;
4585;SDS011;2305;50.118;8.952;2022-12-18T01:45:25;26.87;;;9.23;;
4585;SDS011;2305;50.118;8.952;2022-12-18T01:47:57;12.60;;;7.90;;
4585;SDS011;2305;50.118;8.952;2022-12-18T01:50:30;22.50;;;8.50;;
4585;SDS011;2305;50.118;8.952;2022-12-18T01:53:02;17.87;;;9.13;;
4585;SDS011;2305;50.118;8.952;2022-12-18T01:55:38;16.07;;;6.53;;
4585;SDS011;2305;50.118;8.952;2022-12-18T01:58:12;17.87;;;7.93;;
4585;SDS011;2305;50.118;8.952;2022-12-18T02:00:42;18.33;;;8.53;;
4585;SDS011;2305;50.118;8.952;2022-12-18T02:03:11;21.07;;;8.17;;
4585;SDS011;2305;50.118;8.952;2022-12-18T02:05:44;19.53;;;9.60;;
4585;SDS011;2305;50.118;8.952;2022-12-18T02:08:16;21.93;;;8.40;;
4585;SDS011;2305;50.118;8.952;2022-12-18T02:10:51;17.40;;;8.30;;
4585;SDS011;2305;50.118;8.952;2022-12-18T02:13:32;19.50;;;8.40;;
4585;SDS011;2305;50.118;8.952;2022-12-18T02:16:12;17.23;;;9.20;;
4585;SDS011;2305;50.118;8.952;2022-12-18T02:18:53;17.50;;;8.10;;
4585;SDS011;2305;50.118;8.952;2022-12-18T02:21:34;15.90;;;7.73;;
4585;SDS011;2305;50.118;8.952;2022-12-18T02:24:24;21.40;;;8.23;;
4585;SDS011;2305;50.118;8.952;2022-12-18T02:27:04;15.23;;;8.67;;
4585;SDS011;2305;50.118;8.952;2022-12-18T02:29:36;17.70;;;8.13;;
4585;SDS011;2305;50.118;8.952;2022-12-18T02:32:09;12.97;;;7.20;;
4585;SDS011;2305;50.118;8.952;2022-12-18T02:34:42;21.00;;;9.00;;
4585;SDS011;2305;50.118;8.952;2022-12-18T02:37:15;18.90;;;7.80;;
4585;SDS011;2305;50.118;8.952;2022-12-18T02:39:50;16.80;;;6.70;;
4585;SDS011;2305;50.118;8.952;2022-12-18T02:42:24;16.20;;;7.57;;
4585;SDS011;2305;50.118;8.952;2022-12-18T02:44:57;21.27;;;8.27;;
4585;SDS011;2305;50.118;8.952;2022-12-18T02:47:29;19.13;;;9.10;;
4585;SDS011;2305;50.118;8.952;2022-12-18T02:50:02;15.60;;;7.70;;
4585;SDS011;2305;50.118;8.952;2022-12-18T02:52:38;17.40;;;6.57;;
4585;SDS011;2305;50.118;8.952;2022-12-18T02:55:16;14.63;;;8.60;;
4585;SDS011;2305;50.118;8.952;2022-12-18T02:58:04;16.77;;;7.30;;
4585;SDS011;2305;50.118;8.952;2022-12-18T03:00:40;19.17;;;8.03;;
4585;SDS011;2305;50.118;8.952;2022-12-18T03:03:21;16.97;;;7.83;;
4585;SDS011;2305;50.118;8.952;2022-12-18T03:05:55;16.80;;;8.20;;
4585;SDS011;2305;50.118;8.952;2022-12-18T03:08:29;16.87;;;8.40;;
4585;SDS011;2305;50.118;8.952;2022-12-18T03:11:03;18.87;;;9.20;;
4585;SDS011;2305;50.118;8.952;2022-12-18T03:13:36;21.00;;;8.40;;
4585;SDS011;2305;50.118;8.952;2022-12-18T03:16:14;19.97;;;7.97;;
4585;SDS011;2305;50.118;8.952;2022-12-18T03:18:50;13.93;;;7.90;;
4585;SDS011;2305;50.118;8.952;2022-12-18T03:21:26;23.43;;;7.63;;
4585;SDS011;2305;50.118;8.952;2022-12-18T03:24:00;19.43;;;8.53;;
4585;SDS011;2305;50.118;8.952;2022-12-18T03:26:32;19.30;;;7.90;;
4585;SDS011;2305;50.118;8.952;2022-12-18T03:29:06;14.47;;;7.40;;
4585;SDS011;2305;50.118;8.952;2022-12-18T03:31:39;18.07;;;7.63;;
4585;SDS011;2305;50.118;8.952;2022-12-18T03:34:09;18.70;;;7.10;;
4585;SDS011;2305;50.118;8.952;2022-12-18T03:37:04;14.07;;;7.27;;
4585;SDS011;2305;50.118;8.952;2022-12-18T03:39:34;17.13;;;6.67;;
4585;SDS011;2305;50.118;8.952;2022-12-18T03:42:07;14.07;;;6.57;;
4585;SDS011;2305;50.118;8.952;2022-12-18T03:44:51;13.70;;;6.67;;
4585;SDS011;2305;50.118;8.952;2022-12-18T03:47:26;15.30;;;6.90;;
4585;SDS011;2305;50.118;8.952;2022-12-18T03:50:02;19.07;;;7.83;;
4585;SDS011;2305;50.118;8.952;2022-12-18T03:52:48;12.47;;;7.20;;
4585;SDS011;2305;50.118;8.952;2022-12-18T03:55:29;13.80;;;6.67;;
4585;SDS011;2305;50.118;8.952;2022-12-18T03:58:04;14.07;;;7.03;;
4585;SDS011;2305;50.118;8.952;2022-12-18T04:00:55;17.60;;;8.30;;
4585;SDS011;2305;50.118;8.952;2022-12-18T04:03:27;17.80;;;7.27;;
4585;SDS011;2305;50.118;8.952;2022-12-18T04:06:03;17.60;;;8.63;;
4585;SDS011;2305;50.118;8.952;2022-12-18T04:08:34;15.73;;;7.37;;
4585;SDS011;2305;50.118;8.952;2022-12-18T04:11:05;19.00;;;6.93;;
4585;SDS011;2305;50.118;8.952;2022-12-18T04:13:34;20.73;;;7.97;;
4585;SDS011;2305;50.118;8.952;2022-12-18T04:16:14;17.10;;;6.73;;
4585;SDS011;2305;50.118;8.952;2022-12-18T04:18:48;12.27;;;6.40;;
4585;SDS011;2305;50.118;8.952;2022-12-18T04:21:19;15.23;;;7.27;;
4585;SDS011;2305;50.118;8.952;2022-12-18T04:23:51;17.47;;;7.07;;
4585;SDS011;2305;50.118;8.952;2022-12-18T04:26:22;16.13;;;7.10;;
4585;SDS011;2305;50.118;8.952;2022-12-18T04:29:09;15.30;;;7.73;;
4585;SDS011;2305;50.118;8.952;2022-12-18T04:31:39;22.17;;;8.00;;
4585;SDS011;2305;50.118;8.952;2022-12-18T04:34:08;14.67;;;5.77;;
4585;SDS011;2305;50.118;8.952;2022-12-18T04:36:43;15.90;;;6.37;;
4585;SDS011;2305;50.118;8.952;2022-12-18T04:39:12;12.73;;;6.80;;
4585;SDS011;2305;50.118;8.952;2022-12-18T04:41:51;15.97;;;6.30;;
4585;SDS011;2305;50.118;8.952;2022-12-18T04:44:19;13.93;;;6.30;;
4585;SDS011;2305;50.118;8.952;2022-12-18T04:46:49;9.33;;;6.03;;
4585;SDS011;2305;50.118;8.952;2022-12-18T04:49:20;19.93;;;6.97;;
4585;SDS011;2305;50.118;8.952;2022-12-18T04:51:53;16.27;;;7.37;;
4585;SDS011;2305;50.118;8.952;2022-12-18T04:54:21;11.27;;;6.23;;
4585;SDS011;2305;50.118;8.952;2022-12-18T04:56:49;12.07;;;6.20;;
4585;SDS011;2305;50.118;8.952;2022-12-18T04:59:25;15.40;;;7.40;;
4585;SDS011;2305;50.118;8.952;2022-12-18T05:01:55;13.00;;;6.80;;
4585;SDS011;2305;50.118;8.952;2022-12-18T05:04:23;17.70;;;8.00;;
4585;SDS011;2305;50.118;8.952;2022-12-18T05:06:52;13.97;;;6.97;;
4585;SDS011;2305;50.118;8.952;2022-12-18T05:09:20;13.03;;;6.50;;
4585;SDS011;2305;50.118;8.952;2022-12-18T05:11:52;13.63;;;6.50;;
4585;SDS011;2305;50.118;8.952;2022-12-18T05:14:22;14.77;;;6.90;;
4585;SDS011;2305;50.118;8.952;2022-12-18T05:16:50;10.87;;;6.40;;
4585;SDS011;2305;50.118;8.952;2022-12-18T05:19:30;11.47;;;6.53;;
4585;SDS011;2305;50.118;8.952;2022-12-18T05:22:02;11.67;;;5.53;;
4585;SDS011;2305;50.118;8.952;2022-12-18T05:24:35;19.70;;;6.70;;
4585;SDS011;2305;50.118;8.952;2022-12-18T05:27:06;14.33;;;6.13;;
4585;SDS011;2305;50.118;8.952;2022-12-18T05:29:35;16.53;;;5.57;;
4585;SDS011;2305;50.118;8.952;2022-12-18T05:32:06;11.47;;;6.13;;
4585;SDS011;2305;50.118;8.952;2022-12-18T05:34:39;14.37;;;6.17;;
4585;SDS011;2305;50.118;8.952;2022-12-18T05:37:07;14.40;;;6.27;;
4585;SDS011;2305;50.118;8.952;2022-12-18T05:39:35;12.67;;;5.17;;
4585;SDS011;2305;50.118;8.952;2022-12-18T05:42:03;11.30;;;5.90;;
4585;SDS011;2305;50.118;8.952;2022-12-18T05:44:31;12.40;;;6.13;;
4585;SDS011;2305;50.118;8.952;2022-12-18T05:47:04;16.07;;;6.50;;
4585;SDS011;2305;50.118;8.952;2022-12-18T05:49:32;11.07;;;5.10;;
4585;SDS011;2305;50.118;8.952;2022-12-18T05:52:02;11.07;;;5.83;;
4585;SDS011;2305;50.118;8.952;2022-12-18T05:54:31;14.60;;;6.03;;
4585;SDS011;2305;50.118;8.952;2022-12-18T05:57:00;10.07;;;6.13;;
4585;SDS011;2305;50.118;8.952;2022-12-18T05:59:29;18.67;;;7.37;;
4585;SDS011;2305;50.118;8.952;2022-12-18T06:02:00;14.97;;;5.83;;
4585;SDS011;2305;50.118;8.952;2022-12-18T06:04:31;13.23;;;5.50;;
4585;SDS011;2305;50.118;8.952;2022-12-18T06:07:00;12.50;;;6.47;;
4585;SDS011;2305;50.118;8.952;2022-12-18T06:09:30;15.10;;;6.70;;
4585;SDS011;2305;50.118;8.952;2022-12-18T06:11:58;12.23;;;5.90;;
4585;SDS011;2305;50.118;8.952;2022-12-18T06:14:26;13.80;;;5.47;;
4585;SDS011;2305;50.118;8.952;2022-12-18T06:16:55;13.43;;;5.87;;
4585;SDS011;2305;50.118;8.952;2022-12-18T06:19:24;12.97;;;6.03;;
4585;SDS011;2305;50.118;8.952;2022-12-18T06:21:52;15.10;;;6.70;;
4585;SDS011;2305;50.118;8.952;2022-12-18T06:24:22;11.23;;;5.63;;
4585;SDS011;2305;50.118;8.952;2022-12-18T06:26:52;15.27;;;5.87;;
4585;SDS011;2305;50.118;8.952;2022-12-18T06:29:20;14.03;;;6.30;;
4585;SDS011;2305;50.118;8.952;2022-12-18T06:31:49;13.27;;;6.97;;
4585;SDS011;2305;50.118;8.952;2022-12-18T06:34:20;9.30;;;5.30;;
4585;SDS011;2305;50.118;8.952;2022-12-18T06:36:49;13.27;;;6.23;;
4585;SDS011;2305;50.118;8.952;2022-12-18T06:39:17;8.93;;;5.33;;
4585;SDS011;2305;50.118;8.952;2022-12-18T06:41:48;11.73;;;5.80;;
4585;SDS011;2305;50.118;8.952;2022-12-18T06:44:16;13.10;;;5.83;;
4585;SDS011;2305;50.118;8.952;2022-12-18T06:46:45;14.07;;;7.47;;
4585;SDS011;2305;50.118;8.952;2022-12-18T06:49:14;17.03;;;6.93;;
4585;SDS011;2305;50.118;8.952;2022-12-18T06:51:45;9.80;;;5.90;;
4585;SDS011;2305;50.118;8.952;2022-12-18T06:54:16;12.03;;;4.90;;
4585;SDS011;2305;50.118;8.952;2022-12-18T06:56:45;9.70;;;5.20;;
4585;SDS011;2305;50.118;8.952;2022-12-18T06:59:15;14.43;;;5.77;;
4585;SDS011;2305;50.118;8.952;2022-12-18T07:01:46;12.10;;;6.10;;
4585;SDS011;2305;50.118;8.952;2022-12-18T07:04:14;7.87;;;4.70;;
4585;SDS011;2305;50.118;8.952;2022-12-18T07:06:42;12.60;;;5.57;;
4585;SDS011;2305;50.118;8.952;2022-12-18T07:09:13;13.40;;;5.87;;
4585;SDS011;2305;50.118;8.952;2022-12-18T07:11:42;9.90;;;6.00;;
4585;SDS011;2305;50.118;8.952;2022-12-18T07:14:10;7.93;;;4.90;;
4585;SDS011;2305;50.118;8.952;2022-12-18T07:16:40;14.30;;;5.00;;
4585;SDS011;2305;50.118;8.952;2022-12-18T07:19:11;15.43;;;6.40;;
4585;SDS011;2305;50.118;8.952;2022-12-18T07:21:43;9.63;;;5.30;;
4585;SDS011;2305;50.118;8.952;2022-12-18T07:24:11;15.40;;;6.63;;
4585;SDS011;2305;50.118;8.952;2022-12-18T07:26:40;15.10;;;6.10;;
4585;SDS011;2305;50.118;8.952;2022-12-18T07:29:08;12.13;;;5.63;;
4585;SDS011;2305;50.118;8.952;2022-12-18T07:31:40;13.43;;;6.40;;
4585;SDS011;2305;50.118;8.952;2022-12-18T07:34:09;13.73;;;6.00;;
4585;SDS011;2305;50.118;8.952;2022-12-18T07:36:38;9.70;;;5.30;;
4585;SDS011;2305;50.118;8.952;2022-12-18T07:39:06;13.70;;;6.00;;
4585;SDS011;2305;50.118;8.952;2022-12-18T07:41:34;16.77;;;7.13;;
4585;SDS011;2305;50.118;8.952;2022-12-18T07:44:09;12.90;;;5.80;;
4585;SDS011;2305;50.118;8.952;2022-12-18T07:46:39;15.23;;;6.50;;
4585;SDS011;2305;50.118;8.952;2022-12-18T07:49:10;14.30;;;6.00;;
4585;SDS011;2305;50.118;8.952;2022-12-18T07:51:41;12.13;;;6.77;;
4585;SDS011;2305;50.118;8.952;2022-12-18T07:54:09;11.83;;;6.00;;
4585;SDS011;2305;50.118;8.952;2022-12-18T07:56:37;22.40;;;7.97;;
4585;SDS011;2305;50.118;8.952;2022-12-18T07:59:06;17.47;;;6.93;;
4585;SDS011;2305;50.118;8.952;2022-12-18T08:01:35;10.23;;;5.80;;
4585;SDS011;2305;50.118;8.952;2022-12-18T08:04:10;19.70;;;5.93;;
4585;SDS011;2305;50.118;8.952;2022-12-18T08:06:38;15.63;;;9.00;;
4585;SDS011;2305;50.118;8.952;2022-12-18T08:09:13;18.70;;;8.17;;
4585;SDS011;2305;50.118;8.952;2022-12-18T08:11:41;24.23;;;7.13;;
4585;SDS011;2305;50.118;8.952;2022-12-18T08:14:12;15.57;;;6.53;;
4585;SDS011;2305;50.118;8.952;2022-12-18T08:16:41;12.53;;;6.30;;
4585;SDS011;2305;50.118;8.952;2022-12-18T08:19:10;11.63;;;5.70;;
4585;SDS011;2305;50.118;8.952;2022-12-18T08:21:42;15.20;;;6.73;;
4585;SDS011;2305;50.118;8.952;2022-12-18T08:24:10;14.97;;;6.20;;
4585;SDS011;2305;50.118;8.952;2022-12-18T08:26:38;18.57;;;6.30;;
4585;SDS011;2305;50.118;8.952;2022-12-18T08:29:08;17.60;;;7.00;;
4585;SDS011;2305;50.118;8.952;2022-12-18T08:31:47;15.37;;;6.77;;
4585;SDS011;2305;50.118;8.952;2022-12-18T08:34:18;15.50;;;7.60;;
4585;SDS011;2305;50.118;8.952;2022-12-18T08:36:50;13.90;;;6.90;;
4585;SDS011;2305;50.118;8.952;2022-12-18T08:39:23;13.70;;;6.60;;
4585;SDS011;2305;50.118;8.952;2022-12-18T08:41:51;12.87;;;6.93;;
4585;SDS011;2305;50.118;8.952;2022-12-18T08:44:39;15.30;;;6.70;;
4585;SDS011;2305;50.118;8.952;2022-12-18T08:47:10;17.87;;;7.27;;
4585;SDS011;2305;50.118;8.952;2022-12-18T08:49:43;17.73;;;8.07;;
4585;SDS011;2305;50.118;8.952;2022-12-18T08:52:16;15.73;;;7.30;;
4585;SDS011;2305;50.118;8.952;2022-12-18T08:54:44;17.63;;;7.43;;
4585;SDS011;2305;50.118;8.952;2022-12-18T08:57:12;15.97;;;7.40;;
4585;SDS011;2305;50.118;8.952;2022-12-18T08:59:42;14.87;;;6.90;;
4585;SDS011;2305;50.118;8.952;2022-12-18T09:02:10;19.70;;;8.20;;
4585;SDS011;2305;50.118;8.952;2022-12-18T09:04:53;17.83;;;7.90;;
4585;SDS011;2305;50.118;8.952;2022-12-18T09:07:25;13.33;;;7.50;;
4585;SDS011;2305;50.118;8.952;2022-12-18T09:09:54;20.67;;;8.80;;
4585;SDS011;2305;50.118;8.952;2022-12-18T09:12:24;19.67;;;8.63;;
4585;SDS011;2305;50.118;8.952;2022-12-18T09:14:54;12.33;;;7.10;;
4585;SDS011;2305;50.118;8.952;2022-12-18T09:17:24;19.10;;;8.10;;
4585;SDS011;2305;50.118;8.952;2022-12-18T09:19:54;21.23;;;9.77;;
4585;SDS011;2305;50.118;8.952;2022-12-18T09:22:26;18.40;;;7.90;;
4585;SDS011;2305;50.118;8.952;2022-12-18T09:24:56;18.90;;;7.87;;
4585;SDS011;2305;50.118;8.952;2022-12-18T09:27:25;21.17;;;8.50;;
4585;SDS011;2305;50.118;8.952;2022-12-18T09:29:53;18.83;;;9.00;;
4585;SDS011;2305;50.118;8.952;2022-12-18T09:32:24;18.70;;;8.60;;
4585;SDS011;2305;50.118;8.952;2022-12-18T09:34:53;17.10;;;8.37;;
4585;SDS011;2305;50.118;8.952;2022-12-18T09:37:22;19.63;;;8.37;;
4585;SDS011;2305;50.118;8.952;2022-12-18T09:39:58;20.17;;;10.00;;
4585;SDS011;2305;50.118;8.952;2022-12-18T09:42:28;21.77;;;10.10;;
4585;SDS011;2305;50.118;8.952;2022-12-18T09:44:57;21.90;;;9.43;;
4585;SDS011;2305;50.118;8.952;2022-12-18T09:47:27;25.87;;;11.40;;
4585;SDS011;2305;50.118;8.952;2022-12-18T09:50:04;19.40;;;9.40;;
4585;SDS011;2305;50.118;8.952;2022-12-18T09:52:48;24.70;;;10.93;;
4585;SDS011;2305;50.118;8.952;2022-12-18T09:55:22;24.37;;;11.37;;
4585;SDS011;2305;50.118;8.952;2022-12-18T09:58:02;32.87;;;12.13;;
4585;SDS011;2305;50.118;8.952;2022-12-18T10:00:39;27.30;;;12.50;;
4585;SDS011;2305;50.118;8.952;2022-12-18T10:03:10;31.47;;;12.70;;
4585;SDS011;2305;50.118;8.952;2022-12-18T10:05:42;26.37;;;12.80;;
4585;SDS011;2305;50.118;8.952;2022-12-18T10:08:21;30.80;;;13.00;;
4585;SDS011;2305;50.118;8.952;2022-12-18T10:10:57;23.83;;;12.40;;
4585;SDS011;2305;50.118;8.952;2022-12-18T10:13:31;21.63;;;11.53;;
4585;SDS011;2305;50.118;8.952;2022-12-18T10:16:08;24.83;;;11.47;;
4585;SDS011;2305;50.118;8.952;2022-12-18T10:18:50;26.13;;;13.57;;
4585;SDS011;2305;50.118;8.952;2022-12-18T10:21:35;26.63;;;13.10;;
4585;SDS011;2305;50.118;8.952;2022-12-18T10:24:18;30.13;;;13.60;;
4585;SDS011;2305;50.118;8.952;2022-12-18T10:26:53;29.67;;;12.97;;
4585;SDS011;2305;50.118;8.952;2022-12-18T10:29:33;28.47;;;13.90;;
4585;SDS011;2305;50.118;8.952;2022-12-18T10:32:05;28.57;;;13.30;;
4585;SDS011;2305;50.118;8.952;2022-12-18T10:34:36;27.20;;;13.80;;
4585;SDS011;2305;50.118;8.952;2022-12-18T10:37:06;33.10;;;15.33;;
4585;SDS011;2305;50.118;8.952;2022-12-18T10:39:43;28.73;;;13.57;;
4585;SDS011;2305;50.118;8.952;2022-12-18T10:42:18;32.87;;;13.70;;
4585;SDS011;2305;50.118;8.952;2022-12-18T10:44:53;27.90;;;13.07;;
4585;SDS011;2305;50.118;8.952;2022-12-18T10:47:29;27.67;;;15.03;;
4585;SDS011;2305;50.118;8.952;2022-12-18T10:49:58;38.33;;;16.23;;
4585;SDS011;2305;50.118;8.952;2022-12-18T10:52:28;32.93;;;14.93;;
4585;SDS011;2305;50.118;8.952;2022-12-18T10:54:59;29.60;;;14.17;;
4585;SDS011;2305;50.118;8.952;2022-12-18T10:57:32;28.73;;;12.47;;
4585;SDS011;2305;50.118;8.952;2022-12-18T11:00:22;28.63;;;13.10;;
4585;SDS011;2305;50.118;8.952;2022-12-18T11:02:52;31.87;;;14.07;;
4585;SDS011;2305;50.118;8.952;2022-12-18T11:05:24;25.57;;;11.77;;
4585;SDS011;2305;50.118;8.952;2022-12-18T11:08:00;31.97;;;14.63;;
4585;SDS011;2305;50.118;8.952;2022-12-18T11:10:30;27.50;;;13.47;;
4585;SDS011;2305;50.118;8.952;2022-12-18T11:13:16;29.73;;;14.30;;
4585;SDS011;2305;50.118;8.952;2022-12-18T11:15:47;35.43;;;13.43;;
4585;SDS011;2305;50.118;8.952;2022-12-18T11:18:22;32.90;;;14.60;;
4585;SDS011;2305;50.118;8.952;2022-12-18T11:21:05;29.37;;;13.20;;
4585;SDS011;2305;50.118;8.952;2022-12-18T11:23:43;30.80;;;13.83;;
4585;SDS011;2305;50.118;8.952;2022-12-18T11:26:18;30.47;;;13.97;;
4585;SDS011;2305;50.118;8.952;2022-12-18T11:28:49;33.60;;;12.93;;
4585;SDS011;2305;50.118;8.952;2022-12-18T11:31:23;28.67;;;13.30;;
4585;SDS011;2305;50.118;8.952;2022-12-18T11:34:01;33.90;;;14.10;;
4585;SDS011;2305;50.118;8.952;2022-12-18T11:36:53;28.40;;;13.27;;
4585;SDS011;2305;50.118;8.952;2022-12-18T11:39:28;30.90;;;13.90;;
4585;SDS011;2305;50.118;8.952;2022-12-18T11:42:09;30.83;;;13.83;;
4585;SDS011;2305;50.118;8.952;2022-12-18T11:44:45;33.87;;;14.10;;
4585;SDS011;2305;50.118;8.952;2022-12-18T11:47:20;27.40;;;13.47;;
4585;SDS011;2305;50.118;8.952;2022-12-18T11:49:55;37.97;;;17.30;;
4585;SDS011;2305;50.118;8.952;2022-12-18T11:52:28;38.60;;;15.73;;
4585;SDS011;2305;50.118;8.952;2022-12-18T11:55:10;31.20;;;14.77;;
4585;SDS011;2305;50.118;8.952;2022-12-18T11:57:44;35.03;;;15.00;;
4585;SDS011;2305;50.118;8.952;2022-12-18T12:00:25;32.70;;;14.50;;
4585;SDS011;2305;50.118;8.952;2022-12-18T12:03:00;25.80;;;12.60;;
4585;SDS011;2305;50.118;8.952;2022-12-18T12:05:48;28.00;;;12.80;;
4585;SDS011;2305;50.118;8.952;2022-12-18T12:08:31;38.17;;;14.53;;
4585;SDS011;2305;50.118;8.952;2022-12-18T12:11:10;27.60;;;12.10;;
4585;SDS011;2305;50.118;8.952;2022-12-18T12:13:59;30.63;;;13.57;;
4585;SDS011;2305;50.118;8.952;2022-12-18T12:16:41;25.37;;;12.20;;
4585;SDS011;2305;50.118;8.952;2022-12-18T12:19:23;29.90;;;11.67;;
4585;SDS011;2305;50.118;8.952;2022-12-18T12:22:07;29.97;;;13.17;;
4585;SDS011;2305;50.118;8.952;2022-12-18T12:24:49;31.43;;;13.30;;
4585;SDS011;2305;50.118;8.952;2022-12-18T12:27:37;30.40;;;13.83;;
4585;SDS011;2305;50.118;8.952;2022-12-18T12:30:17;33.40;;;14.20;;
4585;SDS011;2305;50.118;8.952;2022-12-18T12:33:01;31.00;;;13.03;;
4585;SDS011;2305;50.118;8.952;2022-12-18T12:35:44;35.80;;;14.90;;
4585;SDS011;2305;50.118;8.952;2022-12-18T12:38:19;32.77;;;14.20;;
4585;SDS011;2305;50.118;8.952;2022-12-18T12:40:52;28.10;;;14.03;;
4585;SDS011;2305;50.118;8.952;2022-12-18T12:43:33;34.70;;;14.07;;
4585;SDS011;2305;50.118;8.952;2022-12-18T12:46:15;29.30;;;11.63;;
4585;SDS011;2305;50.118;8.952;2022-12-18T12:48:49;29.80;;;12.53;;
4585;SDS011;2305;50.118;8.952;2022-12-18T12:51:22;31.77;;;14.57;;
4585;SDS011;2305;50.118;8.952;2022-12-18T12:53:58;27.97;;;13.73;;
4585;SDS011;2305;50.118;8.952;2022-12-18T12:56:30;32.63;;;14.30;;
4585;SDS011;2305;50.118;8.952;2022-12-18T12:59:10;26.70;;;12.90;;
4585;SDS011;2305;50.118;8.952;2022-12-18T13:01:48;34.87;;;13.87;;
4585;SDS011;2305;50.118;8.952;2022-12-18T13:04:24;29.93;;;13.70;;
4585;SDS011;2305;50.118;8.952;2022-12-18T13:07:00;32.77;;;14.23;;
4585;SDS011;2305;50.118;8.952;2022-12-18T13:09:35;33.37;;;14.53;;
4585;SDS011;2305;50.118;8.952;2022-12-18T13:12:55;32.40;;;13.67;;
4585;SDS011;2305;50.118;8.952;2022-12-18T13:15:31;30.90;;;12.93;;
4585;SDS011;2305;50.118;8.952;2022-12-18T13:18:17;33.40;;;14.07;;
4585;SDS011;2305;50.118;8.952;2022-12-18T13:20:50;31.27;;;13.00;;
4585;SDS011;2305;50.118;8.952;2022-12-18T13:23:31;36.57;;;15.30;;
4585;SDS011;2305;50.118;8.952;2022-12-18T13:29:04;29.07;;;13.80;;
4585;SDS011;2305;50.118;8.952;2022-12-18T13:34:33;29.57;;;12.80;;
4585;SDS011;2305;50.118;8.952;2022-12-18T13:43:22;27.27;;;12.23;;
4585;SDS011;2305;50.118;8.952;2022-12-18T13:46:03;26.33;;;12.37;;
4585;SDS011;2305;50.118;8.952;2022-12-18T13:48:35;31.10;;;14.20;;
4585;SDS011;2305;50.118;8.952;2022-12-18T13:51:07;30.47;;;13.67;;
4585;SDS011;2305;50.118;8.952;2022-12-18T13:53:44;31.17;;;13.73;;
4585;SDS011;2305;50.118;8.952;2022-12-18T13:56:16;28.30;;;12.13;;
4585;SDS011;2305;50.118;8.952;2022-12-18T13:58:47;33.20;;;14.50;;
4585;SDS011;2305;50.118;8.952;2022-12-18T14:01:33;25.93;;;12.63;;
4585;SDS011;2305;50.118;8.952;2022-12-18T14:04:16;28.90;;;13.90;;
4585;SDS011;2305;50.118;8.952;2022-12-18T14:06:52;33.97;;;13.80;;
4585;SDS011;2305;50.118;8.952;2022-12-18T14:09:26;36.07;;;12.73;;
4585;SDS011;2305;50.118;8.952;2022-12-18T14:11:59;25.57;;;12.67;;
4585;SDS011;2305;50.118;8.952;2022-12-18T14:14:47;27.57;;;12.50;;
4585;SDS011;2305;50.118;8.952;2022-12-18T14:17:21;28.03;;;12.90;;
4585;SDS011;2305;50.118;8.952;2022-12-18T14:19:52;26.83;;;12.70;;
4585;SDS011;2305;50.118;8.952;2022-12-18T14:22:21;23.50;;;12.03;;
4585;SDS011;2305;50.118;8.952;2022-12-18T14:25:13;28.77;;;12.83;;
4585;SDS011;2305;50.118;8.952;2022-12-18T14:27:45;29.13;;;12.93;;
4585;SDS011;2305;50.118;8.952;2022-12-18T14:30:28;23.33;;;11.87;;
4585;SDS011;2305;50.118;8.952;2022-12-18T14:33:04;26.17;;;12.47;;
4585;SDS011;2305;50.118;8.952;2022-12-18T14:35:37;29.87;;;12.50;;
4585;SDS011;2305;50.118;8.952;2022-12-18T14:41:09;27.07;;;11.10;;
4585;SDS011;2305;50.118;8.952;2022-12-18T14:43:40;26.97;;;11.30;;
4585;SDS011;2305;50.118;8.952;2022-12-18T14:46:25;27.37;;;11.97;;
4585;SDS011;2305;50.118;8.952;2022-12-18T14:48:57;25.87;;;11.80;;
4585;SDS011;2305;50.118;8.952;2022-12-18T14:51:27;28.57;;;12.70;;
4585;SDS011;2305;50.118;8.952;2022-12-18T14:53:59;25.63;;;12.57;;
4585;SDS011;2305;50.118;8.952;2022-12-18T14:56:30;24.93;;;12.00;;
4585;SDS011;2305;50.118;8.952;2022-12-18T14:59:02;27.30;;;13.30;;
4585;SDS011;2305;50.118;8.952;2022-12-18T15:01:33;32.97;;;12.70;;
4585;SDS011;2305;50.118;8.952;2022-12-18T15:04:21;31.00;;;12.00;;
4585;SDS011;2305;50.118;8.952;2022-12-18T15:07:03;26.60;;;10.97;;
4585;SDS011;2305;50.118;8.952;2022-12-18T15:09:37;26.77;;;12.20;;
4585;SDS011;2305;50.118;8.952;2022-12-18T15:12:15;26.37;;;11.73;;
4585;SDS011;2305;50.118;8.952;2022-12-18T15:14:51;25.80;;;11.40;;
4585;SDS011;2305;50.118;8.952;2022-12-18T15:17:23;26.43;;;12.70;;
4585;SDS011;2305;50.118;8.952;2022-12-18T15:19:58;29.80;;;11.30;;
4585;SDS011;2305;50.118;8.952;2022-12-18T15:22:29;27.30;;;12.50;;
4585;SDS011;2305;50.118;8.952;2022-12-18T15:25:02;29.30;;;13.70;;
4585;SDS011;2305;50.118;8.952;2022-12-18T15:27:50;26.80;;;11.67;;
4585;SDS011;2305;50.118;8.952;2022-12-18T15:30:20;26.70;;;12.57;;
4585;SDS011;2305;50.118;8.952;2022-12-18T15:32:50;27.63;;;11.60;;
4585;SDS011;2305;50.118;8.952;2022-12-18T15:35:22;28.07;;;12.00;;
4585;SDS011;2305;50.118;8.952;2022-12-18T15:37:53;33.23;;;13.67;;
4585;SDS011;2305;50.118;8.952;2022-12-18T15:40:22;27.43;;;12.67;;
4585;SDS011;2305;50.118;8.952;2022-12-18T15:42:52;24.80;;;12.90;;
4585;SDS011;2305;50.118;8.952;2022-12-18T15:45:42;27.17;;;13.80;;
4585;SDS011;2305;50.118;8.952;2022-12-18T15:48:15;25.80;;;11.80;;